createdAt,value
2022-08-07T00:07:41.847Z,8.9
2022-08-07T00:17:18.506Z,8.65
2022-08-07T00:26:59.608Z,8.65
2022-08-07T00:36:31.865Z,8.66
2022-08-07T00:46:08.697Z,8.72
2022-08-07T00:56:00.909Z,8.38
2022-08-07T01:05:24.475Z,8.12
2022-08-07T01:15:01.344Z,8.07
2022-08-07T01:24:35.330Z,8.07
2022-08-07T01:34:12.215Z,8
2022-08-07T01:43:48.683Z,7.85
2022-08-07T01:54:09.797Z,7.58
2022-08-07T02:03:12.789Z,7.56
2022-08-07T02:12:39.179Z,7.37
2022-08-07T02:22:15.081Z,7.46
2022-08-07T02:31:51.764Z,7.32
2022-08-07T02:41:33.247Z,7.22
2022-08-07T02:51:05.051Z,6.98
2022-08-07T03:00:41.009Z,6.75
2022-08-07T03:10:18.075Z,6.83
2022-08-07T03:19:55.421Z,6.66
2022-08-07T03:29:31.703Z,6.63
2022-08-07T03:39:08.897Z,6.48
2022-08-07T03:48:45.667Z,6.46
2022-08-07T03:58:35.612Z,6.5
2022-08-07T04:07:58.504Z,6.54
2022-08-07T04:18:32.111Z,6.59
2022-08-07T04:27:15.038Z,6.49
2022-08-07T04:36:49.555Z,6.73
2022-08-07T04:46:29.662Z,6.86
2022-08-07T04:58:07.211Z,7.26
2022-08-07T05:05:52.320Z,7.57
2022-08-07T05:15:21.553Z,7.93
2022-08-07T05:24:55.918Z,8.37
2022-08-07T05:34:33.495Z,8.81
2022-08-07T05:44:12.444Z,9.23
2022-08-07T05:54:08.744Z,9.69
2022-08-07T06:03:25.503Z,10.2
2022-08-07T06:13:03.615Z,10.71
2022-08-07T06:22:41.447Z,11.18
2022-08-07T06:32:19.212Z,11.69
2022-08-07T06:42:01.417Z,12.11
2022-08-07T06:51:34.935Z,12.62
2022-08-07T07:01:14.134Z,13.1
2022-08-07T07:10:55.036Z,13.86
2022-08-07T07:20:28.828Z,14.55
2022-08-07T07:30:09.489Z,15.35
2022-08-07T07:39:45.657Z,15.96
2022-08-07T07:50:31.865Z,16.9
2022-08-07T07:59:02.244Z,17.53
2022-08-07T08:08:41.902Z,18.2
2022-08-07T08:18:19.187Z,18.78
2022-08-07T08:28:02.102Z,19.15
2022-08-07T08:37:40.410Z,19.89
2022-08-07T08:47:13.760Z,19.91
2022-08-07T08:56:52.192Z,20.46
2022-08-07T09:06:30.930Z,20.53
2022-08-07T09:16:21.010Z,21.18
2022-08-07T09:25:53.545Z,21.42
2022-08-07T09:36:01.565Z,22.79
2022-08-07T09:46:28.560Z,24.19
2022-08-07T09:55:04.002Z,24.88
2022-08-07T10:04:52.871Z,25.4
2022-08-07T10:14:30.240Z,24.69
2022-08-07T10:24:08.532Z,25.92
2022-08-07T10:34:07.119Z,26.03
2022-08-07T10:43:34.559Z,25.56
2022-08-07T10:53:10.844Z,27.73
2022-08-07T11:02:53.742Z,28.11
2022-08-07T11:12:35.429Z,29.21
2022-08-07T11:22:19.058Z,30.18
2022-08-07T11:31:54.123Z,29.96
2022-08-07T11:42:00.502Z,27.37
2022-08-07T11:51:11.964Z,29.43
2022-08-07T12:01:01.832Z,27.88
2022-08-07T12:10:28.769Z,29.5
2022-08-07T12:20:14.136Z,30.68
2022-08-07T12:29:52.498Z,30.86
2022-08-07T12:39:43.411Z,31.54
2022-08-07T12:49:25.939Z,30.49
2022-08-07T12:58:46.709Z,30.05
2022-08-07T13:08:25.732Z,29.67
2022-08-07T13:18:01.684Z,30.76
2022-08-07T13:28:06.166Z,28.55
2022-08-07T13:37:19.742Z,29.5
2022-08-07T13:46:57.321Z,28.8
2022-08-07T13:56:35.173Z,28.06
2022-08-07T14:06:11.503Z,27.48
2022-08-07T14:15:45.113Z,27.95
2022-08-07T14:25:19.233Z,28.5
2022-08-07T14:34:59.502Z,28.9
2022-08-07T14:44:38.316Z,28.9
2022-08-07T15:03:54.373Z,31.34
2022-08-07T15:13:25.763Z,29.21
2022-08-07T15:22:54.827Z,29.04
2022-08-07T15:32:39.248Z,28.28
2022-08-07T15:42:43.171Z,29.35
2022-08-07T16:01:12.416Z,27.56
2022-08-07T16:10:47.260Z,26.85
2022-08-07T16:20:33.203Z,25.39
2022-08-07T16:30:08.015Z,25.82
2022-08-07T16:39:33.517Z,24.56
2022-08-07T16:50:19.401Z,24.29
2022-08-07T16:59:02.590Z,23.74
2022-08-07T17:08:20.895Z,23.82
2022-08-07T17:17:57.642Z,23.38
2022-08-07T17:27:34.662Z,23.21
2022-08-07T17:37:14.446Z,22.83
2022-08-07T17:46:52.362Z,22.75
2022-08-07T17:56:29.400Z,22.57
2022-08-07T18:06:03.834Z,22.21
2022-08-07T18:15:38.532Z,21.94
2022-08-07T18:25:18.936Z,21.44
2022-08-07T18:34:53.648Z,20.79
2022-08-07T18:44:28.800Z,20.4
2022-08-07T18:54:05.047Z,19.94
2022-08-07T19:03:41.910Z,19.51
2022-08-07T19:13:21.840Z,18.83
2022-08-07T19:22:54.946Z,18.36
2022-08-07T19:32:37.022Z,18.02
2022-08-07T19:42:08.614Z,17.52
2022-08-07T20:01:21.040Z,16.95
2022-08-07T20:10:57.279Z,16.65
2022-08-07T20:20:33.779Z,16.32
2022-08-07T20:30:11.125Z,15.88
2022-08-07T20:40:01.978Z,15.49
2022-08-07T20:49:54.917Z,15.32
2022-08-07T20:58:59.552Z,15.04
2022-08-07T21:08:37.440Z,14.84
2022-08-07T21:18:20.659Z,14.62
2022-08-07T21:27:49.630Z,14.47
2022-08-07T21:37:26.475Z,14.12
2022-08-07T21:47:03.317Z,13.91
2022-08-07T21:56:47.257Z,13.67
2022-08-07T22:06:29.019Z,13.27
2022-08-07T22:16:35.554Z,13.15
2022-08-07T22:25:36.135Z,13.08
2022-08-07T22:35:07.942Z,12.82
2022-08-07T22:44:57.954Z,12.66
2022-08-07T22:54:22.230Z,12.49
2022-08-07T23:04:00.129Z,12.31
2022-08-07T23:13:48.301Z,12.16
2022-08-07T23:23:11.511Z,11.79
2022-08-07T23:32:49.753Z,11.6
2022-08-07T23:42:25.098Z,11.62
2022-08-07T23:52:56.001Z,11.51
